sensor_id;sensor_type;location;lat;lon;timestamp;temperature;humidity
14901;DHT22;7542;49.078;9.194;2023-11-22T00:00:23;29.20;48.90
14901;DHT22;7542;49.078;9.194;2023-11-22T00:01:25;29.10;46.40
14901;DHT22;7542;49.078;9.194;2023-11-22T00:02:28;28.70;45.50
14901;DHT22;7542;49.078;9.194;2023-11-22T00:03:31;28.90;45.00
14901;DHT22;7542;49.078;9.194;2023-11-22T00:04:33;28.70;44.50
14901;DHT22;7542;49.078;9.194;2023-11-22T00:05:35;28.60;43.70
14901;DHT22;7542;49.078;9.194;2023-11-22T00:06:37;28.50;44.10
14901;DHT22;7542;49.078;9.194;2023-11-22T00:07:40;28.40;44.70
14901;DHT22;7542;49.078;9.194;2023-11-22T00:08:42;28.30;44.90
14901;DHT22;7542;49.078;9.194;2023-11-22T00:09:44;28.10;45.20
14901;DHT22;7542;49.078;9.194;2023-11-22T00:10:48;28.00;45.40
14901;DHT22;7542;49.078;9.194;2023-11-22T00:11:50;27.90;45.10
14901;DHT22;7542;49.078;9.194;2023-11-22T00:12:52;27.80;45.30
14901;DHT22;7542;49.078;9.194;2023-11-22T00:13:54;27.60;45.60
14901;DHT22;7542;49.078;9.194;2023-11-22T00:14:59;27.70;45.80
14901;DHT22;7542;49.078;9.194;2023-11-22T00:16:01;27.50;46.00
14901;DHT22;7542;49.078;9.194;2023-11-22T00:17:03;27.40;46.10
14901;DHT22;7542;49.078;9.194;2023-11-22T00:18:06;27.40;46.30
14901;DHT22;7542;49.078;9.194;2023-11-22T00:19:08;27.30;46.40
14901;DHT22;7542;49.078;9.194;2023-11-22T00:20:10;27.40;46.40
14901;DHT22;7542;49.078;9.194;2023-11-22T00:21:13;27.30;46.40
14901;DHT22;7542;49.078;9.194;2023-11-22T00:22:15;27.10;46.60
14901;DHT22;7542;49.078;9.194;2023-11-22T00:23:17;27.10;46.70
14901;DHT22;7542;49.078;9.194;2023-11-22T00:24:19;27.00;46.80
14901;DHT22;7542;49.078;9.194;2023-11-22T00:25:21;27.00;46.90
14901;DHT22;7542;49.078;9.194;2023-11-22T00:26:23;26.90;46.60
14901;DHT22;7542;49.078;9.194;2023-11-22T00:27:30;26.90;46.60
14901;DHT22;7542;49.078;9.194;2023-11-22T00:28:35;26.80;46.70
14901;DHT22;7542;49.078;9.194;2023-11-22T00:29:38;26.90;46.70
14901;DHT22;7542;49.078;9.194;2023-11-22T00:30:39;26.80;46.90
14901;DHT22;7542;49.078;9.194;2023-11-22T00:31:42;26.70;47.00
14901;DHT22;7542;49.078;9.194;2023-11-22T00:32:46;26.70;47.10
14901;DHT22;7542;49.078;9.194;2023-11-22T00:33:48;26.60;47.10
14901;DHT22;7542;49.078;9.194;2023-11-22T00:34:50;26.60;47.30
14901;DHT22;7542;49.078;9.194;2023-11-22T00:35:53;26.60;47.40
14901;DHT22;7542;49.078;9.194;2023-11-22T00:36:58;26.80;47.40
14901;DHT22;7542;49.078;9.194;2023-11-22T00:38:01;26.50;47.50
14901;DHT22;7542;49.078;9.194;2023-11-22T00:39:03;26.40;47.50
14901;DHT22;7542;49.078;9.194;2023-11-22T00:40:06;26.40;47.60
14901;DHT22;7542;49.078;9.194;2023-11-22T00:41:14;26.40;47.60
14901;DHT22;7542;49.078;9.194;2023-11-22T00:42:17;26.40;47.70
14901;DHT22;7542;49.078;9.194;2023-11-22T00:43:22;26.20;47.80
14901;DHT22;7542;49.078;9.194;2023-11-22T00:44:24;26.30;47.90
14901;DHT22;7542;49.078;9.194;2023-11-22T00:45:26;26.30;47.90
14901;DHT22;7542;49.078;9.194;2023-11-22T00:46:28;26.30;47.90
14901;DHT22;7542;49.078;9.194;2023-11-22T00:47:31;26.20;48.10
14901;DHT22;7542;49.078;9.194;2023-11-22T00:48:36;26.20;48.10
14901;DHT22;7542;49.078;9.194;2023-11-22T00:49:38;26.10;48.20
14901;DHT22;7542;49.078;9.194;2023-11-22T00:50:40;26.10;48.20
14901;DHT22;7542;49.078;9.194;2023-11-22T00:51:42;26.00;48.30
14901;DHT22;7542;49.078;9.194;2023-11-22T00:52:44;26.20;48.30
14901;DHT22;7542;49.078;9.194;2023-11-22T00:53:46;26.00;48.40
14901;DHT22;7542;49.078;9.194;2023-11-22T00:54:48;26.00;48.40
14901;DHT22;7542;49.078;9.194;2023-11-22T00:55:51;26.00;48.50
14901;DHT22;7542;49.078;9.194;2023-11-22T00:56:54;25.90;48.10
14901;DHT22;7542;49.078;9.194;2023-11-22T00:57:56;25.90;48.10
14901;DHT22;7542;49.078;9.194;2023-11-22T00:59:05;25.90;48.20
14901;DHT22;7542;49.078;9.194;2023-11-22T01:00:08;25.90;48.20
14901;DHT22;7542;49.078;9.194;2023-11-22T01:01:11;25.90;48.20
14901;DHT22;7542;49.078;9.194;2023-11-22T01:02:13;25.80;48.30
14901;DHT22;7542;49.078;9.194;2023-11-22T01:03:16;25.80;48.40
14901;DHT22;7542;49.078;9.194;2023-11-22T01:04:18;25.80;48.40
14901;DHT22;7542;49.078;9.194;2023-11-22T01:05:20;25.70;48.40
14901;DHT22;7542;49.078;9.194;2023-11-22T01:06:24;25.80;48.50
14901;DHT22;7542;49.078;9.194;2023-11-22T01:07:26;25.70;48.50
14901;DHT22;7542;49.078;9.194;2023-11-22T01:08:28;25.70;48.60
14901;DHT22;7542;49.078;9.194;2023-11-22T01:09:30;25.70;48.60
14901;DHT22;7542;49.078;9.194;2023-11-22T01:10:33;25.80;48.60
14901;DHT22;7542;49.078;9.194;2023-11-22T01:11:35;25.70;48.60
14901;DHT22;7542;49.078;9.194;2023-11-22T01:12:38;25.60;48.70
14901;DHT22;7542;49.078;9.194;2023-11-22T01:13:40;25.50;48.80
14901;DHT22;7542;49.078;9.194;2023-11-22T01:14:44;25.40;48.80
14901;DHT22;7542;49.078;9.194;2023-11-22T01:15:46;25.50;48.90
14901;DHT22;7542;49.078;9.194;2023-11-22T01:16:48;25.50;48.90
14901;DHT22;7542;49.078;9.194;2023-11-22T01:17:50;25.50;48.90
14901;DHT22;7542;49.078;9.194;2023-11-22T01:18:52;25.50;48.90
14901;DHT22;7542;49.078;9.194;2023-11-22T01:19:54;25.50;49.00
14901;DHT22;7542;49.078;9.194;2023-11-22T01:20:56;25.40;49.00
14901;DHT22;7542;49.078;9.194;2023-11-22T01:21:59;25.40;49.00
14901;DHT22;7542;49.078;9.194;2023-11-22T01:23:01;25.40;49.10
14901;DHT22;7542;49.078;9.194;2023-11-22T01:24:03;25.40;49.10
14901;DHT22;7542;49.078;9.194;2023-11-22T01:25:06;25.30;49.20
14901;DHT22;7542;49.078;9.194;2023-11-22T01:26:08;25.30;49.20
14901;DHT22;7542;49.078;9.194;2023-11-22T01:27:11;25.30;49.20
14901;DHT22;7542;49.078;9.194;2023-11-22T01:28:13;25.30;49.20
14901;DHT22;7542;49.078;9.194;2023-11-22T01:29:16;25.30;49.40
14901;DHT22;7542;49.078;9.194;2023-11-22T01:30:18;25.30;49.30
14901;DHT22;7542;49.078;9.194;2023-11-22T01:31:20;25.20;49.40
14901;DHT22;7542;49.078;9.194;2023-11-22T01:32:23;25.20;49.40
14901;DHT22;7542;49.078;9.194;2023-11-22T01:33:25;25.20;49.50
14901;DHT22;7542;49.078;9.194;2023-11-22T01:34:28;25.20;49.50
14901;DHT22;7542;49.078;9.194;2023-11-22T01:35:31;25.10;49.60
14901;DHT22;7542;49.078;9.194;2023-11-22T01:36:33;25.10;49.50
14901;DHT22;7542;49.078;9.194;2023-11-22T01:37:35;25.10;49.60
14901;DHT22;7542;49.078;9.194;2023-11-22T01:38:37;25.00;49.60
14901;DHT22;7542;49.078;9.194;2023-11-22T01:39:41;25.10;49.60
14901;DHT22;7542;49.078;9.194;2023-11-22T01:40:45;25.10;49.70
14901;DHT22;7542;49.078;9.194;2023-11-22T01:41:48;25.10;49.70
14901;DHT22;7542;49.078;9.194;2023-11-22T01:42:51;25.10;49.70
14901;DHT22;7542;49.078;9.194;2023-11-22T01:43:53;25.00;49.70
14901;DHT22;7542;49.078;9.194;2023-11-22T01:44:56;25.00;49.70
14901;DHT22;7542;49.078;9.194;2023-11-22T01:45:58;25.00;49.70
14901;DHT22;7542;49.078;9.194;2023-11-22T01:47:02;25.00;49.80
14901;DHT22;7542;49.078;9.194;2023-11-22T01:48:06;25.00;49.80
14901;DHT22;7542;49.078;9.194;2023-11-22T01:49:10;25.00;49.90
14901;DHT22;7542;49.078;9.194;2023-11-22T01:50:13;25.00;49.90
14901;DHT22;7542;49.078;9.194;2023-11-22T01:51:17;24.90;49.90
14901;DHT22;7542;49.078;9.194;2023-11-22T01:52:19;24.90;50.00
14901;DHT22;7542;49.078;9.194;2023-11-22T01:53:22;24.90;50.00
14901;DHT22;7542;49.078;9.194;2023-11-22T01:54:25;24.90;50.00
14901;DHT22;7542;49.078;9.194;2023-11-22T01:55:27;24.90;50.00
14901;DHT22;7542;49.078;9.194;2023-11-22T01:56:30;24.80;50.00
14901;DHT22;7542;49.078;9.194;2023-11-22T01:57:33;24.80;50.00
14901;DHT22;7542;49.078;9.194;2023-11-22T01:58:38;24.80;50.00
14901;DHT22;7542;49.078;9.194;2023-11-22T01:59:42;24.80;50.00
14901;DHT22;7542;49.078;9.194;2023-11-22T02:00:51;24.80;50.10
14901;DHT22;7542;49.078;9.194;2023-11-22T02:01:54;24.80;50.10
14901;DHT22;7542;49.078;9.194;2023-11-22T02:02:56;24.80;50.20
14901;DHT22;7542;49.078;9.194;2023-11-22T02:03:59;24.80;50.20
14901;DHT22;7542;49.078;9.194;2023-11-22T02:05:01;24.80;50.20
14901;DHT22;7542;49.078;9.194;2023-11-22T02:06:03;24.80;50.20
14901;DHT22;7542;49.078;9.194;2023-11-22T02:07:07;24.80;50.20
14901;DHT22;7542;49.078;9.194;2023-11-22T02:08:09;24.70;50.20
14901;DHT22;7542;49.078;9.194;2023-11-22T02:09:12;24.70;50.20
14901;DHT22;7542;49.078;9.194;2023-11-22T02:10:17;24.70;50.20
14901;DHT22;7542;49.078;9.194;2023-11-22T02:11:19;24.70;50.30
14901;DHT22;7542;49.078;9.194;2023-11-22T02:12:26;24.70;50.30
14901;DHT22;7542;49.078;9.194;2023-11-22T02:13:29;24.70;50.30
14901;DHT22;7542;49.078;9.194;2023-11-22T02:14:32;24.70;50.40
14901;DHT22;7542;49.078;9.194;2023-11-22T02:15:35;24.70;50.40
14901;DHT22;7542;49.078;9.194;2023-11-22T02:16:37;24.70;50.40
14901;DHT22;7542;49.078;9.194;2023-11-22T02:17:41;24.60;50.30
14901;DHT22;7542;49.078;9.194;2023-11-22T02:18:44;24.60;50.30
14901;DHT22;7542;49.078;9.194;2023-11-22T02:19:47;24.60;50.40
14901;DHT22;7542;49.078;9.194;2023-11-22T02:20:50;24.60;50.40
14901;DHT22;7542;49.078;9.194;2023-11-22T02:21:52;24.60;50.40
14901;DHT22;7542;49.078;9.194;2023-11-22T02:22:54;24.50;50.40
14901;DHT22;7542;49.078;9.194;2023-11-22T02:23:57;24.50;50.40
14901;DHT22;7542;49.078;9.194;2023-11-22T02:25:00;24.50;50.40
14901;DHT22;7542;49.078;9.194;2023-11-22T02:26:02;24.50;50.40
14901;DHT22;7542;49.078;9.194;2023-11-22T02:27:04;24.50;50.50
14901;DHT22;7542;49.078;9.194;2023-11-22T02:28:07;24.50;50.40
14901;DHT22;7542;49.078;9.194;2023-11-22T02:29:10;24.50;50.50
14901;DHT22;7542;49.078;9.194;2023-11-22T02:30:12;24.50;50.50
14901;DHT22;7542;49.078;9.194;2023-11-22T02:31:14;24.50;50.50
14901;DHT22;7542;49.078;9.194;2023-11-22T02:32:16;24.50;50.50
14901;DHT22;7542;49.078;9.194;2023-11-22T02:33:20;24.50;50.60
14901;DHT22;7542;49.078;9.194;2023-11-22T02:34:22;24.40;50.50
14901;DHT22;7542;49.078;9.194;2023-11-22T02:35:24;24.40;50.50
14901;DHT22;7542;49.078;9.194;2023-11-22T02:36:30;24.40;50.50
14901;DHT22;7542;49.078;9.194;2023-11-22T02:37:35;24.40;50.60
14901;DHT22;7542;49.078;9.194;2023-11-22T02:38:38;24.40;50.50
14901;DHT22;7542;49.078;9.194;2023-11-22T02:40:02;24.40;50.60
14901;DHT22;7542;49.078;9.194;2023-11-22T02:41:07;24.40;50.50
14901;DHT22;7542;49.078;9.194;2023-11-22T02:42:11;24.40;50.60
14901;DHT22;7542;49.078;9.194;2023-11-22T02:43:13;24.40;50.60
14901;DHT22;7542;49.078;9.194;2023-11-22T02:44:15;24.40;50.60
14901;DHT22;7542;49.078;9.194;2023-11-22T02:45:26;24.40;50.70
14901;DHT22;7542;49.078;9.194;2023-11-22T02:46:29;24.50;50.70
14901;DHT22;7542;49.078;9.194;2023-11-22T02:47:33;24.40;50.70
14901;DHT22;7542;49.078;9.194;2023-11-22T02:48:36;24.30;50.70
14901;DHT22;7542;49.078;9.194;2023-11-22T02:49:39;24.30;50.70
14901;DHT22;7542;49.078;9.194;2023-11-22T02:50:41;24.40;50.70
14901;DHT22;7542;49.078;9.194;2023-11-22T02:51:45;24.30;50.70
14901;DHT22;7542;49.078;9.194;2023-11-22T02:52:48;24.30;50.70
14901;DHT22;7542;49.078;9.194;2023-11-22T02:53:50;24.20;50.60
14901;DHT22;7542;49.078;9.194;2023-11-22T02:54:53;24.30;50.80
14901;DHT22;7542;49.078;9.194;2023-11-22T02:55:55;24.30;50.70
14901;DHT22;7542;49.078;9.194;2023-11-22T02:57:00;24.30;50.80
14901;DHT22;7542;49.078;9.194;2023-11-22T02:58:02;24.20;50.70
14901;DHT22;7542;49.078;9.194;2023-11-22T02:59:04;24.20;50.70
14901;DHT22;7542;49.078;9.194;2023-11-22T03:00:08;24.20;50.80
14901;DHT22;7542;49.078;9.194;2023-11-22T03:01:15;24.20;50.80
14901;DHT22;7542;49.078;9.194;2023-11-22T03:02:17;24.20;50.80
14901;DHT22;7542;49.078;9.194;2023-11-22T03:03:19;24.20;50.80
14901;DHT22;7542;49.078;9.194;2023-11-22T03:04:21;24.20;50.80
14901;DHT22;7542;49.078;9.194;2023-11-22T03:05:23;24.20;50.80
14901;DHT22;7542;49.078;9.194;2023-11-22T03:06:26;24.10;50.90
14901;DHT22;7542;49.078;9.194;2023-11-22T03:07:29;24.20;50.90
14901;DHT22;7542;49.078;9.194;2023-11-22T03:08:32;24.10;50.90
14901;DHT22;7542;49.078;9.194;2023-11-22T03:09:35;24.20;50.90
14901;DHT22;7542;49.078;9.194;2023-11-22T03:10:38;24.10;50.90
14901;DHT22;7542;49.078;9.194;2023-11-22T03:11:40;24.10;50.90
14901;DHT22;7542;49.078;9.194;2023-11-22T03:12:42;24.00;50.80
14901;DHT22;7542;49.078;9.194;2023-11-22T03:13:45;24.10;50.90
14901;DHT22;7542;49.078;9.194;2023-11-22T03:14:47;24.10;50.90
14901;DHT22;7542;49.078;9.194;2023-11-22T03:15:49;24.10;51.00
14901;DHT22;7542;49.078;9.194;2023-11-22T03:16:51;24.10;50.90
14901;DHT22;7542;49.078;9.194;2023-11-22T03:17:53;24.10;51.00
14901;DHT22;7542;49.078;9.194;2023-11-22T03:18:56;24.10;51.00
14901;DHT22;7542;49.078;9.194;2023-11-22T03:20:00;24.10;51.00
14901;DHT22;7542;49.078;9.194;2023-11-22T03:21:03;24.00;50.90
14901;DHT22;7542;49.078;9.194;2023-11-22T03:22:07;24.10;51.00
14901;DHT22;7542;49.078;9.194;2023-11-22T03:23:09;24.10;51.10
14901;DHT22;7542;49.078;9.194;2023-11-22T03:24:14;24.00;51.00
14901;DHT22;7542;49.078;9.194;2023-11-22T03:25:17;24.00;51.00
14901;DHT22;7542;49.078;9.194;2023-11-22T03:26:19;24.00;51.00
14901;DHT22;7542;49.078;9.194;2023-11-22T03:27:21;23.90;51.00
14901;DHT22;7542;49.078;9.194;2023-11-22T03:28:24;23.90;51.00
14901;DHT22;7542;49.078;9.194;2023-11-22T03:29:26;23.90;51.00
14901;DHT22;7542;49.078;9.194;2023-11-22T03:30:29;24.00;51.10
14901;DHT22;7542;49.078;9.194;2023-11-22T03:31:31;24.00;51.00
14901;DHT22;7542;49.078;9.194;2023-11-22T03:32:33;23.90;51.00
14901;DHT22;7542;49.078;9.194;2023-11-22T03:33:39;24.00;51.10
14901;DHT22;7542;49.078;9.194;2023-11-22T03:34:41;23.90;51.10
14901;DHT22;7542;49.078;9.194;2023-11-22T03:35:43;23.90;51.10
14901;DHT22;7542;49.078;9.194;2023-11-22T03:36:46;23.90;51.10
14901;DHT22;7542;49.078;9.194;2023-11-22T03:37:48;23.90;51.10
14901;DHT22;7542;49.078;9.194;2023-11-22T03:38:50;23.90;51.20
14901;DHT22;7542;49.078;9.194;2023-11-22T03:39:52;23.90;51.20
14901;DHT22;7542;49.078;9.194;2023-11-22T03:40:54;23.90;51.10
14901;DHT22;7542;49.078;9.194;2023-11-22T03:41:56;23.90;51.20
14901;DHT22;7542;49.078;9.194;2023-11-22T03:42:59;23.90;51.20
14901;DHT22;7542;49.078;9.194;2023-11-22T03:44:01;23.80;51.10
14901;DHT22;7542;49.078;9.194;2023-11-22T03:45:04;23.80;51.10
14901;DHT22;7542;49.078;9.194;2023-11-22T03:46:07;23.80;51.10
14901;DHT22;7542;49.078;9.194;2023-11-22T03:47:10;23.80;51.10
14901;DHT22;7542;49.078;9.194;2023-11-22T03:48:15;23.90;51.20
14901;DHT22;7542;49.078;9.194;2023-11-22T03:49:17;23.80;51.20
14901;DHT22;7542;49.078;9.194;2023-11-22T03:50:19;23.80;51.20
14901;DHT22;7542;49.078;9.194;2023-11-22T03:51:21;23.80;51.20
14901;DHT22;7542;49.078;9.194;2023-11-22T03:52:23;23.80;51.20
14901;DHT22;7542;49.078;9.194;2023-11-22T03:53:25;23.70;51.20
14901;DHT22;7542;49.078;9.194;2023-11-22T03:54:27;23.80;51.20
14901;DHT22;7542;49.078;9.194;2023-11-22T03:55:29;23.80;51.20
14901;DHT22;7542;49.078;9.194;2023-11-22T03:56:32;23.80;51.30
14901;DHT22;7542;49.078;9.194;2023-11-22T03:57:35;23.80;51.20
14901;DHT22;7542;49.078;9.194;2023-11-22T03:58:37;23.80;51.20
14901;DHT22;7542;49.078;9.194;2023-11-22T03:59:40;23.80;51.20
14901;DHT22;7542;49.078;9.194;2023-11-22T04:00:42;23.70;51.30
14901;DHT22;7542;49.078;9.194;2023-11-22T04:01:44;23.80;51.20
14901;DHT22;7542;49.078;9.194;2023-11-22T04:02:47;23.80;51.30
14901;DHT22;7542;49.078;9.194;2023-11-22T04:03:49;23.70;51.20
14901;DHT22;7542;49.078;9.194;2023-11-22T04:04:52;23.80;51.30
14901;DHT22;7542;49.078;9.194;2023-11-22T04:05:54;23.70;51.30
14901;DHT22;7542;49.078;9.194;2023-11-22T04:06:56;23.70;51.30
14901;DHT22;7542;49.078;9.194;2023-11-22T04:07:57;23.70;51.30
14901;DHT22;7542;49.078;9.194;2023-11-22T04:09:00;23.70;51.40
14901;DHT22;7542;49.078;9.194;2023-11-22T04:10:03;23.70;51.40
14901;DHT22;7542;49.078;9.194;2023-11-22T04:11:07;23.60;51.30
14901;DHT22;7542;49.078;9.194;2023-11-22T04:12:09;23.70;51.40
14901;DHT22;7542;49.078;9.194;2023-11-22T04:13:11;23.70;51.40
14901;DHT22;7542;49.078;9.194;2023-11-22T04:14:14;23.70;51.30
14901;DHT22;7542;49.078;9.194;2023-11-22T04:15:16;23.70;51.40
14901;DHT22;7542;49.078;9.194;2023-11-22T04:16:19;23.60;51.30
14901;DHT22;7542;49.078;9.194;2023-11-22T04:17:21;23.60;51.30
14901;DHT22;7542;49.078;9.194;2023-11-22T04:18:23;23.60;51.30
14901;DHT22;7542;49.078;9.194;2023-11-22T04:19:26;23.70;51.40
14901;DHT22;7542;49.078;9.194;2023-11-22T04:20:30;23.60;51.30
14901;DHT22;7542;49.078;9.194;2023-11-22T04:21:32;23.60;51.30
14901;DHT22;7542;49.078;9.194;2023-11-22T04:22:35;23.60;51.30
14901;DHT22;7542;49.078;9.194;2023-11-22T04:23:40;23.60;51.30
14901;DHT22;7542;49.078;9.194;2023-11-22T04:24:41;23.60;51.30
14901;DHT22;7542;49.078;9.194;2023-11-22T04:25:44;23.60;51.40
14901;DHT22;7542;49.078;9.194;2023-11-22T04:26:47;23.60;51.30
14901;DHT22;7542;49.078;9.194;2023-11-22T04:27:49;23.60;51.40
14901;DHT22;7542;49.078;9.194;2023-11-22T04:28:52;23.60;51.30
14901;DHT22;7542;49.078;9.194;2023-11-22T04:29:54;23.70;51.40
14901;DHT22;7542;49.078;9.194;2023-11-22T04:30:57;23.60;51.30
14901;DHT22;7542;49.078;9.194;2023-11-22T04:31:59;23.60;51.30
14901;DHT22;7542;49.078;9.194;2023-11-22T04:33:01;23.60;51.40
14901;DHT22;7542;49.078;9.194;2023-11-22T04:34:03;23.60;51.40
14901;DHT22;7542;49.078;9.194;2023-11-22T04:35:06;23.60;51.40
14901;DHT22;7542;49.078;9.194;2023-11-22T04:36:11;23.60;51.40
14901;DHT22;7542;49.078;9.194;2023-11-22T04:37:14;23.50;51.40
14901;DHT22;7542;49.078;9.194;2023-11-22T04:38:16;23.60;51.40
14901;DHT22;7542;49.078;9.194;2023-11-22T04:39:19;23.60;51.40
14901;DHT22;7542;49.078;9.194;2023-11-22T04:40:21;23.60;51.50
14901;DHT22;7542;49.078;9.194;2023-11-22T04:41:24;23.60;51.50
14901;DHT22;7542;49.078;9.194;2023-11-22T04:42:27;23.50;51.50
14901;DHT22;7542;49.078;9.194;2023-11-22T04:43:29;23.60;51.50
14901;DHT22;7542;49.078;9.194;2023-11-22T04:44:31;23.50;51.50
14901;DHT22;7542;49.078;9.194;2023-11-22T04:45:34;23.50;51.50
14901;DHT22;7542;49.078;9.194;2023-11-22T04:46:36;23.50;51.50
14901;DHT22;7542;49.078;9.194;2023-11-22T04:47:38;23.50;51.50
14901;DHT22;7542;49.078;9.194;2023-11-22T04:48:41;23.50;51.50
14901;DHT22;7542;49.078;9.194;2023-11-22T04:49:46;23.50;51.60
14901;DHT22;7542;49.078;9.194;2023-11-22T04:50:48;24.00;51.80
14901;DHT22;7542;49.078;9.194;2023-11-22T04:51:50;23.50;51.60
14901;DHT22;7542;49.078;9.194;2023-11-22T04:52:52;23.60;51.60
14901;DHT22;7542;49.078;9.194;2023-11-22T04:53:54;23.40;51.50
14901;DHT22;7542;49.078;9.194;2023-11-22T04:54:56;23.40;51.60
14901;DHT22;7542;49.078;9.194;2023-11-22T04:55:58;23.40;51.60
14901;DHT22;7542;49.078;9.194;2023-11-22T04:57:01;23.40;51.60
14901;DHT22;7542;49.078;9.194;2023-11-22T04:58:03;23.40;51.60
14901;DHT22;7542;49.078;9.194;2023-11-22T04:59:05;23.40;51.60
14901;DHT22;7542;49.078;9.194;2023-11-22T05:00:09;23.30;51.60
14901;DHT22;7542;49.078;9.194;2023-11-22T05:01:11;23.30;51.60
14901;DHT22;7542;49.078;9.194;2023-11-22T05:02:15;23.30;51.60
14901;DHT22;7542;49.078;9.194;2023-11-22T05:03:17;23.40;51.50
14901;DHT22;7542;49.078;9.194;2023-11-22T05:04:20;23.40;51.50
14901;DHT22;7542;49.078;9.194;2023-11-22T05:05:22;25.10;52.20
14901;DHT22;7542;49.078;9.194;2023-11-22T05:06:24;23.40;51.50
14901;DHT22;7542;49.078;9.194;2023-11-22T05:07:29;23.40;51.50
14901;DHT22;7542;49.078;9.194;2023-11-22T05:08:31;23.50;51.50
14901;DHT22;7542;49.078;9.194;2023-11-22T05:09:33;23.40;51.40
14901;DHT22;7542;49.078;9.194;2023-11-22T05:10:36;23.50;51.50
14901;DHT22;7542;49.078;9.194;2023-11-22T05:11:38;23.50;51.50
14901;DHT22;7542;49.078;9.194;2023-11-22T05:12:40;23.50;51.50
14901;DHT22;7542;49.078;9.194;2023-11-22T05:13:42;23.40;51.40
14901;DHT22;7542;49.078;9.194;2023-11-22T05:14:47;23.40;51.40
14901;DHT22;7542;49.078;9.194;2023-11-22T05:15:49;23.40;51.40
14901;DHT22;7542;49.078;9.194;2023-11-22T05:16:52;23.40;51.40
14901;DHT22;7542;49.078;9.194;2023-11-22T05:17:54;23.40;51.40
14901;DHT22;7542;49.078;9.194;2023-11-22T05:18:56;23.50;51.50
14901;DHT22;7542;49.078;9.194;2023-11-22T05:19:58;23.50;51.50
14901;DHT22;7542;49.078;9.194;2023-11-22T05:21:00;23.40;51.40
14901;DHT22;7542;49.078;9.194;2023-11-22T05:22:05;23.50;51.50
14901;DHT22;7542;49.078;9.194;2023-11-22T05:23:07;23.40;51.30
14901;DHT22;7542;49.078;9.194;2023-11-22T05:24:09;23.40;51.40
14901;DHT22;7542;49.078;9.194;2023-11-22T05:25:11;25.10;52.10
14901;DHT22;7542;49.078;9.194;2023-11-22T05:26:13;23.40;51.40
14901;DHT22;7542;49.078;9.194;2023-11-22T05:27:15;23.40;51.40
14901;DHT22;7542;49.078;9.194;2023-11-22T05:28:18;23.50;51.50
14901;DHT22;7542;49.078;9.194;2023-11-22T05:29:21;23.40;51.40
14901;DHT22;7542;49.078;9.194;2023-11-22T05:30:23;23.40;51.40
14901;DHT22;7542;49.078;9.194;2023-11-22T05:31:25;23.40;51.40
14901;DHT22;7542;49.078;9.194;2023-11-22T05:32:28;23.40;51.40
14901;DHT22;7542;49.078;9.194;2023-11-22T05:33:33;23.40;51.40
14901;DHT22;7542;49.078;9.194;2023-11-22T05:34:35;23.40;51.40
14901;DHT22;7542;49.078;9.194;2023-11-22T05:35:37;23.30;51.40
14901;DHT22;7542;49.078;9.194;2023-11-22T05:36:40;23.40;51.40
14901;DHT22;7542;49.078;9.194;2023-11-22T05:37:42;23.40;51.40
14901;DHT22;7542;49.078;9.194;2023-11-22T05:38:44;23.40;51.40
14901;DHT22;7542;49.078;9.194;2023-11-22T05:39:47;23.40;51.50
14901;DHT22;7542;49.078;9.194;2023-11-22T05:40:48;23.30;51.50
14901;DHT22;7542;49.078;9.194;2023-11-22T05:41:52;23.30;51.40
14901;DHT22;7542;49.078;9.194;2023-11-22T05:42:54;23.40;51.40
14901;DHT22;7542;49.078;9.194;2023-11-22T05:43:56;23.40;51.50
14901;DHT22;7542;49.078;9.194;2023-11-22T05:44:58;23.40;51.50
14901;DHT22;7542;49.078;9.194;2023-11-22T05:46:00;23.40;51.40
14901;DHT22;7542;49.078;9.194;2023-11-22T05:47:02;23.40;51.50
14901;DHT22;7542;49.078;9.194;2023-11-22T05:48:04;23.30;51.40
14901;DHT22;7542;49.078;9.194;2023-11-22T05:49:06;23.30;51.50
14901;DHT22;7542;49.078;9.194;2023-11-22T05:50:10;23.30;51.50
14901;DHT22;7542;49.078;9.194;2023-11-22T05:51:12;23.30;51.50
14901;DHT22;7542;49.078;9.194;2023-11-22T05:52:14;23.40;51.50
14901;DHT22;7542;49.078;9.194;2023-11-22T05:53:16;23.30;51.50
14901;DHT22;7542;49.078;9.194;2023-11-22T05:54:21;23.30;51.40
14901;DHT22;7542;49.078;9.194;2023-11-22T05:55:23;23.30;51.50
14901;DHT22;7542;49.078;9.194;2023-11-22T05:56:25;23.30;51.50
14901;DHT22;7542;49.078;9.194;2023-11-22T05:57:27;23.30;51.50
14901;DHT22;7542;49.078;9.194;2023-11-22T05:58:29;20.40;50.20
14901;DHT22;7542;49.078;9.194;2023-11-22T05:59:32;23.30;51.50
14901;DHT22;7542;49.078;9.194;2023-11-22T06:00:34;23.30;51.50
14901;DHT22;7542;49.078;9.194;2023-11-22T06:01:36;23.30;51.50
14901;DHT22;7542;49.078;9.194;2023-11-22T06:02:38;23.30;51.50
14901;DHT22;7542;49.078;9.194;2023-11-22T06:03:42;23.30;51.50
14901;DHT22;7542;49.078;9.194;2023-11-22T06:04:44;23.30;51.50
14901;DHT22;7542;49.078;9.194;2023-11-22T06:05:47;23.30;51.50
14901;DHT22;7542;49.078;9.194;2023-11-22T06:06:49;23.30;51.50
14901;DHT22;7542;49.078;9.194;2023-11-22T06:07:51;23.30;51.50
14901;DHT22;7542;49.078;9.194;2023-11-22T06:08:53;23.40;51.50
14901;DHT22;7542;49.078;9.194;2023-11-22T06:09:56;23.30;51.50
14901;DHT22;7542;49.078;9.194;2023-11-22T06:10:59;23.30;51.50
14901;DHT22;7542;49.078;9.194;2023-11-22T06:12:01;23.30;51.60
14901;DHT22;7542;49.078;9.194;2023-11-22T06:13:03;23.30;51.60
14901;DHT22;7542;49.078;9.194;2023-11-22T06:14:05;23.30;51.60
14901;DHT22;7542;49.078;9.194;2023-11-22T06:15:08;23.20;51.50
14901;DHT22;7542;49.078;9.194;2023-11-22T06:16:10;23.30;51.60
14901;DHT22;7542;49.078;9.194;2023-11-22T06:17:13;23.30;51.60
14901;DHT22;7542;49.078;9.194;2023-11-22T06:18:16;23.20;51.50
14901;DHT22;7542;49.078;9.194;2023-11-22T06:19:18;23.30;51.60
14901;DHT22;7542;49.078;9.194;2023-11-22T06:20:20;23.30;51.60
14901;DHT22;7542;49.078;9.194;2023-11-22T06:21:23;23.20;51.50
14901;DHT22;7542;49.078;9.194;2023-11-22T06:22:28;23.20;51.50
14901;DHT22;7542;49.078;9.194;2023-11-22T06:23:30;23.20;51.50
14901;DHT22;7542;49.078;9.194;2023-11-22T06:24:33;23.20;51.50
14901;DHT22;7542;49.078;9.194;2023-11-22T06:25:38;23.20;51.50
14901;DHT22;7542;49.078;9.194;2023-11-22T06:26:43;23.30;51.60
14901;DHT22;7542;49.078;9.194;2023-11-22T06:27:48;23.20;51.50
14901;DHT22;7542;49.078;9.194;2023-11-22T06:28:50;23.20;51.50
14901;DHT22;7542;49.078;9.194;2023-11-22T06:29:52;23.20;51.50
14901;DHT22;7542;49.078;9.194;2023-11-22T06:30:54;23.20;51.50
14901;DHT22;7542;49.078;9.194;2023-11-22T06:31:56;23.20;51.50
14901;DHT22;7542;49.078;9.194;2023-11-22T06:32:58;23.20;51.50
14901;DHT22;7542;49.078;9.194;2023-11-22T06:34:00;23.20;51.50
14901;DHT22;7542;49.078;9.194;2023-11-22T06:35:03;23.20;51.50
14901;DHT22;7542;49.078;9.194;2023-11-22T06:36:07;23.20;51.50
14901;DHT22;7542;49.078;9.194;2023-11-22T06:37:11;23.20;51.50
14901;DHT22;7542;49.078;9.194;2023-11-22T06:38:14;23.20;51.60
14901;DHT22;7542;49.078;9.194;2023-11-22T06:39:16;23.20;51.60
14901;DHT22;7542;49.078;9.194;2023-11-22T06:40:19;23.20;51.60
14901;DHT22;7542;49.078;9.194;2023-11-22T06:41:24;23.10;51.60
14901;DHT22;7542;49.078;9.194;2023-11-22T06:42:26;23.20;51.60